PWSweather.com
Personal Weather Stations
Station Observations
KG5EIU
Vista Oaks, St Paul, TX 75098

Vista OaksSt Paul, TX 75098

Lat: 33.0430204, Lon: -96.5552108

Elevation: 569

Station Type: Davis Vantage Pro2

https://davidcappello.com/weather/

Latest ConditionsUpdated 10:10:11 PM CDT Friday, Mar 22, 2019
Currently Today's Max Today's Min Today's Average
Temperature 64.5°F18.1°C 73.5°F23.1°C 47.8°F8.8°C 61.8°F16.6°C
Dew Point 44.4°F6.9°C 47.7°F8.7°C 41.2°F5.1°C 43.7°F6.5°C
Winds 3.0 mph SE4.8 kmh SE 9.0 mph -14.5 kmh - - 2.5 mph 4.0 kmh
Wind Gusts -- -- - -
Humidity 48% 86% 33% 54%
Pressure 30.02 in1016.6 mb 30.21 in1023.0 mb 30.01 in1016.3 mb -
Hour Temp Dew Point Humidity Winds Wind Gusts Pressure Precip Precip Rate Daily Precip Total
10:10 PM 64.5°F18.1°C 44.4°F6.9°C 48% 3.0 mph SE4.8 kmh SE -- 30.02 in1016.6 mb 0.00 in0.0 mm 0.00 in0.0 mm 0.00 in0.0 mm
10:05 PM 64.6°F18.1°C 44.4°F6.9°C 48% 4.0 mph SE6.4 kmh SE -- 30.02 in1016.6 mb 0.00 in0.0 mm 0.00 in0.0 mm 0.00 in0.0 mm
10:00 PM 64.7°F18.2°C 44.6°F7.0°C 48% 5.0 mph SE8.0 kmh SE -- 30.02 in1016.6 mb 0.00 in0.0 mm 0.00 in0.0 mm 0.00 in0.0 mm
09:55 PM 64.8°F18.2°C 44.6°F7.0°C 48% 5.0 mph SE8.0 kmh SE -- 30.02 in1016.6 mb 0.00 in0.0 mm 0.00 in0.0 mm 0.00 in0.0 mm
09:50 PM 64.9°F18.3°C 44.2°F6.8°C 47% 4.0 mph ESE6.4 kmh ESE -- 30.01 in1016.3 mb 0.00 in0.0 mm 0.00 in0.0 mm 0.00 in0.0 mm
09:45 PM 64.9°F18.3°C 44.2°F6.8°C 47% 3.0 mph ESE4.8 kmh ESE -- 30.02 in1016.6 mb 0.00 in0.0 mm 0.00 in0.0 mm 0.00 in0.0 mm
09:40 PM 65.0°F18.3°C 44.2°F6.8°C 47% 2.0 mph SE3.2 kmh SE -- 30.02 in1016.6 mb 0.00 in0.0 mm 0.00 in0.0 mm 0.00 in0.0 mm
09:35 PM 65.0°F18.3°C 44.2°F6.8°C 47% 7.0 mph ESE11.3 kmh ESE -- 30.02 in1016.6 mb 0.00 in0.0 mm 0.00 in0.0 mm 0.00 in0.0 mm
09:30 PM 65.0°F18.3°C 44.2°F6.8°C 47% 2.0 mph ESE3.2 kmh ESE -- 30.02 in1016.6 mb 0.00 in0.0 mm 0.00 in0.0 mm 0.00 in0.0 mm
09:25 PM 64.9°F18.3°C 44.2°F6.8°C 47% 2.0 mph ESE3.2 kmh ESE -- 30.02 in1016.6 mb 0.00 in0.0 mm 0.00 in0.0 mm 0.00 in0.0 mm
09:20 PM 64.9°F18.3°C 44.2°F6.8°C 47% 2.0 mph ESE3.2 kmh ESE -- 30.03 in1016.9 mb 0.00 in0.0 mm 0.00 in0.0 mm 0.00 in0.0 mm
09:15 PM 65.0°F18.3°C 44.2°F6.8°C 47% 1.0 mph ESE1.6 kmh ESE -- 30.03 in1016.9 mb 0.00 in0.0 mm 0.00 in0.0 mm 0.00 in0.0 mm
09:10 PM 65.2°F18.4°C 43.9°F6.6°C 46% 2.0 mph SE3.2 kmh SE -- 30.03 in1016.9 mb 0.00 in0.0 mm 0.00 in0.0 mm 0.00 in0.0 mm
09:05 PM 65.3°F18.5°C 44.1°F6.7°C 46% Calm Calm -- 30.03 in1016.9 mb 0.00 in0.0 mm 0.00 in0.0 mm 0.00 in0.0 mm
09:00 PM 65.6°F18.7°C 44.2°F6.8°C 46% 3.0 mph ESE4.8 kmh ESE -- 30.03 in1016.9 mb 0.00 in0.0 mm 0.00 in0.0 mm 0.00 in0.0 mm
08:55 PM 65.7°F18.7°C 43.7°F6.5°C 45% 3.0 mph ESE4.8 kmh ESE -- 30.03 in1016.9 mb 0.00 in0.0 mm 0.00 in0.0 mm 0.00 in0.0 mm
08:50 PM 65.8°F18.8°C 43.9°F6.6°C 45% 3.0 mph ESE4.8 kmh ESE -- 30.02 in1016.6 mb 0.00 in0.0 mm 0.00 in0.0 mm 0.00 in0.0 mm
08:45 PM 66.0°F18.9°C 44.1°F6.7°C 45% 3.0 mph ESE4.8 kmh ESE -- 30.03 in1016.9 mb 0.00 in0.0 mm 0.00 in0.0 mm 0.00 in0.0 mm
08:40 PM 66.1°F18.9°C 44.1°F6.7°C 45% 3.0 mph SE4.8 kmh SE -- 30.03 in1016.9 mb 0.00 in0.0 mm 0.00 in0.0 mm 0.00 in0.0 mm
08:35 PM 66.2°F19.0°C 44.2°F6.8°C 45% 4.0 mph SE6.4 kmh SE -- 30.02 in1016.6 mb 0.00 in0.0 mm 0.00 in0.0 mm 0.00 in0.0 mm
08:30 PM 66.5°F19.2°C 44.6°F7.0°C 45% 3.0 mph SE4.8 kmh SE -- 30.02 in1016.6 mb 0.00 in0.0 mm 0.00 in0.0 mm 0.00 in0.0 mm
08:25 PM 66.7°F19.3°C 44.1°F6.7°C 44% 3.0 mph SE4.8 kmh SE -- 30.03 in1016.9 mb 0.00 in0.0 mm 0.00 in0.0 mm 0.00 in0.0 mm
08:20 PM 66.9°F19.4°C 44.2°F6.8°C 44% 1.0 mph ESE1.6 kmh ESE -- 30.03 in1016.9 mb 0.00 in0.0 mm 0.00 in0.0 mm 0.00 in0.0 mm
08:15 PM 67.1°F19.5°C 43.9°F6.6°C 43% 2.0 mph ESE3.2 kmh ESE -- 30.03 in1016.9 mb 0.00 in0.0 mm 0.00 in0.0 mm 0.00 in0.0 mm
08:10 PM 67.3°F19.6°C 44.1°F6.7°C 43% 4.0 mph SE6.4 kmh SE -- 30.03 in1016.9 mb 0.00 in0.0 mm 0.00 in0.0 mm 0.00 in0.0 mm
08:05 PM 67.6°F19.8°C 44.4°F6.9°C 43% 3.0 mph SE4.8 kmh SE -- 30.03 in1016.9 mb 0.00 in0.0 mm 0.00 in0.0 mm 0.00 in0.0 mm
08:00 PM 68.0°F20.0°C 44.1°F6.7°C 42% 3.0 mph SE4.8 kmh SE -- 30.03 in1016.9 mb 0.00 in0.0 mm 0.00 in0.0 mm 0.00 in0.0 mm
07:55 PM 68.3°F20.2°C 44.4°F6.9°C 42% 1.0 mph SE1.6 kmh SE -- 30.03 in1016.9 mb 0.00 in0.0 mm 0.00 in0.0 mm 0.00 in0.0 mm
07:50 PM 68.6°F20.3°C 43.9°F6.6°C 41% 1.0 mph SE1.6 kmh SE -- 30.03 in1016.9 mb 0.00 in0.0 mm 0.00 in0.0 mm 0.00 in0.0 mm
07:45 PM 68.9°F20.5°C 44.2°F6.8°C 41% 2.0 mph SE3.2 kmh SE -- 30.03 in1016.9 mb 0.00 in0.0 mm 0.00 in0.0 mm 0.00 in0.0 mm
07:40 PM 69.2°F20.7°C 43.9°F6.6°C 40% 1.0 mph SE1.6 kmh SE -- 30.03 in1016.9 mb 0.00 in0.0 mm 0.00 in0.0 mm 0.00 in0.0 mm
07:35 PM 69.4°F20.8°C 44.1°F6.7°C 40% 2.0 mph SE3.2 kmh SE -- 30.03 in1016.9 mb 0.00 in0.0 mm 0.00 in0.0 mm 0.00 in0.0 mm
07:30 PM 69.8°F21.0°C 44.4°F6.9°C 40% 1.0 mph SE1.6 kmh SE -- 30.03 in1016.9 mb 0.00 in0.0 mm 0.00 in0.0 mm 0.00 in0.0 mm
07:25 PM 70.2°F21.2°C 44.1°F6.7°C 39% 1.0 mph SE1.6 kmh SE -- 30.03 in1016.9 mb 0.00 in0.0 mm 0.00 in0.0 mm 0.00 in0.0 mm
07:20 PM 70.6°F21.4°C 43.7°F6.5°C 38% 2.0 mph S3.2 kmh S -- 30.03 in1016.9 mb 0.00 in0.0 mm 0.00 in0.0 mm 0.00 in0.0 mm
07:15 PM 71.0°F21.7°C 44.2°F6.8°C 38% Calm Calm -- 30.03 in1016.9 mb 0.00 in0.0 mm 0.00 in0.0 mm 0.00 in0.0 mm
07:10 PM 71.2°F21.8°C 44.2°F6.8°C 38% 3.0 mph SSE4.8 kmh SSE -- 30.03 in1016.9 mb 0.00 in0.0 mm 0.00 in0.0 mm 0.00 in0.0 mm
07:05 PM 71.4°F21.9°C 44.4°F6.9°C 38% 2.0 mph S3.2 kmh S -- 30.03 in1016.9 mb 0.00 in0.0 mm 0.00 in0.0 mm 0.00 in0.0 mm
07:00 PM 71.5°F21.9°C 43.7°F6.5°C 37% 3.0 mph S4.8 kmh S -- 30.03 in1016.9 mb 0.00 in0.0 mm 0.00 in0.0 mm 0.00 in0.0 mm
06:55 PM 71.7°F22.1°C 45.5°F7.5°C 39% 4.0 mph SE6.4 kmh SE -- 30.03 in1016.9 mb 0.00 in0.0 mm 0.00 in0.0 mm 0.00 in0.0 mm
06:50 PM 71.8°F22.1°C 45.5°F7.5°C 39% 6.0 mph S9.7 kmh S -- 30.03 in1016.9 mb 0.00 in0.0 mm 0.00 in0.0 mm 0.00 in0.0 mm
06:45 PM 72.0°F22.2°C 44.2°F6.8°C 37% 5.0 mph S8.0 kmh S -- 30.02 in1016.6 mb 0.00 in0.0 mm 0.00 in0.0 mm 0.00 in0.0 mm
06:40 PM 72.0°F22.2°C 44.2°F6.8°C 37% 6.0 mph SE9.7 kmh SE -- 30.02 in1016.6 mb 0.00 in0.0 mm 0.00 in0.0 mm 0.00 in0.0 mm
06:35 PM 72.0°F22.2°C 44.2°F6.8°C 37% 7.0 mph S11.3 kmh S -- 30.02 in1016.6 mb 0.00 in0.0 mm 0.00 in0.0 mm 0.00 in0.0 mm
06:30 PM 72.2°F22.3°C 44.4°F6.9°C 37% 5.0 mph SE8.0 kmh SE -- 30.02 in1016.6 mb 0.00 in0.0 mm 0.00 in0.0 mm 0.00 in0.0 mm
06:25 PM 72.3°F22.4°C 45.3°F7.4°C 38% 7.0 mph S11.3 kmh S -- 30.02 in1016.6 mb 0.00 in0.0 mm 0.00 in0.0 mm 0.00 in0.0 mm
06:20 PM 72.4°F22.4°C 45.3°F7.4°C 38% 4.0 mph SSE6.4 kmh SSE -- 30.02 in1016.6 mb 0.00 in0.0 mm 0.00 in0.0 mm 0.00 in0.0 mm
06:15 PM 72.2°F22.3°C 45.1°F7.3°C 38% 6.0 mph SSE9.7 kmh SSE -- 30.02 in1016.6 mb 0.00 in0.0 mm 0.00 in0.0 mm 0.00 in0.0 mm
06:10 PM 72.3°F22.4°C 44.6°F7.0°C 37% 3.0 mph SE4.8 kmh SE -- 30.02 in1016.6 mb 0.00 in0.0 mm 0.00 in0.0 mm 0.00 in0.0 mm
06:05 PM 72.4°F22.4°C 44.6°F7.0°C 37% 7.0 mph SSE11.3 kmh SSE -- 30.01 in1016.3 mb 0.00 in0.0 mm 0.00 in0.0 mm 0.00 in0.0 mm
06:00 PM 72.5°F22.5°C 43.3°F6.3°C 35% 6.0 mph SSE9.7 kmh SSE -- 30.01 in1016.3 mb 0.00 in0.0 mm 0.00 in0.0 mm 0.00 in0.0 mm
05:55 PM 72.6°F22.6°C 44.2°F6.8°C 36% 5.0 mph SE8.0 kmh SE -- 30.02 in1016.6 mb 0.00 in0.0 mm 0.00 in0.0 mm 0.00 in0.0 mm
05:50 PM 72.6°F22.6°C 43.5°F6.4°C 35% 5.0 mph SSE8.0 kmh SSE -- 30.01 in1016.3 mb 0.00 in0.0 mm 0.00 in0.0 mm 0.00 in0.0 mm
05:45 PM 72.6°F22.6°C 43.5°F6.4°C 35% 4.0 mph SE6.4 kmh SE -- 30.01 in1016.3 mb 0.00 in0.0 mm 0.00 in0.0 mm 0.00 in0.0 mm
05:40 PM 72.7°F22.6°C 43.5°F6.4°C 35% 5.0 mph SE8.0 kmh SE -- 30.01 in1016.3 mb 0.00 in0.0 mm 0.00 in0.0 mm 0.00 in0.0 mm
05:35 PM 72.8°F22.7°C 44.4°F6.9°C 36% 2.0 mph ESE3.2 kmh ESE -- 30.01 in1016.3 mb 0.00 in0.0 mm 0.00 in0.0 mm 0.00 in0.0 mm
05:30 PM 73.0°F22.8°C 43.7°F6.5°C 35% 5.0 mph SSE8.0 kmh SSE -- 30.01 in1016.3 mb 0.00 in0.0 mm 0.00 in0.0 mm 0.00 in0.0 mm
05:25 PM 73.2°F22.9°C 44.6°F7.0°C 36% 4.0 mph SE6.4 kmh SE -- 30.01 in1016.3 mb 0.00 in0.0 mm 0.00 in0.0 mm 0.00 in0.0 mm
05:20 PM 73.2°F22.9°C 44.6°F7.0°C 36% 5.0 mph S8.0 kmh S -- 30.01 in1016.3 mb 0.00 in0.0 mm 0.00 in0.0 mm 0.00 in0.0 mm
05:15 PM 73.1°F22.8°C 44.4°F6.9°C 36% 2.0 mph SSE3.2 kmh SSE -- 30.02 in1016.6 mb 0.00 in0.0 mm 0.00 in0.0 mm 0.00 in0.0 mm
05:10 PM 73.1°F22.8°C 44.4°F6.9°C 36% 4.0 mph S6.4 kmh S -- 30.02 in1016.6 mb 0.00 in0.0 mm 0.00 in0.0 mm 0.00 in0.0 mm
05:05 PM 73.1°F22.8°C 43.7°F6.5°C 35% 4.0 mph SE6.4 kmh SE -- 30.02 in1016.6 mb 0.00 in0.0 mm 0.00 in0.0 mm 0.00 in0.0 mm
05:00 PM 73.3°F22.9°C 45.3°F7.4°C 37% 6.0 mph SE9.7 kmh SE -- 30.02 in1016.6 mb 0.00 in0.0 mm 0.00 in0.0 mm 0.00 in0.0 mm
04:55 PM 73.5°F23.1°C 44.2°F6.8°C 35% 7.0 mph SE11.3 kmh SE -- 30.02 in1016.6 mb 0.00 in0.0 mm 0.00 in0.0 mm 0.00 in0.0 mm
04:50 PM 73.5°F23.1°C 45.0°F7.2°C 36% 4.0 mph SSE6.4 kmh SSE -- 30.02 in1016.6 mb 0.00 in0.0 mm 0.00 in0.0 mm 0.00 in0.0 mm
04:45 PM 73.4°F23.0°C 44.8°F7.1°C 36% 5.0 mph SSE8.0 kmh SSE -- 30.02 in1016.6 mb 0.00 in0.0 mm 0.00 in0.0 mm 0.00 in0.0 mm
04:40 PM 73.5°F23.1°C 45.0°F7.2°C 36% 6.0 mph SE9.7 kmh SE -- 30.03 in1016.9 mb 0.00 in0.0 mm 0.00 in0.0 mm 0.00 in0.0 mm
04:35 PM 73.3°F22.9°C 44.6°F7.0°C 36% 9.0 mph SSE14.5 kmh SSE -- 30.03 in1016.9 mb 0.00 in0.0 mm 0.00 in0.0 mm 0.00 in0.0 mm
04:30 PM 73.0°F22.8°C 43.7°F6.5°C 35% 6.0 mph SE9.7 kmh SE -- 30.03 in1016.9 mb 0.00 in0.0 mm 0.00 in0.0 mm 0.00 in0.0 mm
04:25 PM 73.1°F22.8°C 45.1°F7.3°C 37% 3.0 mph SE4.8 kmh SE -- 30.03 in1016.9 mb 0.00 in0.0 mm 0.00 in0.0 mm 0.00 in0.0 mm
04:20 PM 73.3°F22.9°C 43.9°F6.6°C 35% 5.0 mph SE8.0 kmh SE -- 30.04 in1017.3 mb 0.00 in0.0 mm 0.00 in0.0 mm 0.00 in0.0 mm
04:15 PM 73.4°F23.0°C 43.3°F6.3°C 34% 2.0 mph SE3.2 kmh SE -- 30.04 in1017.3 mb 0.00 in0.0 mm 0.00 in0.0 mm 0.00 in0.0 mm
04:10 PM 73.3°F22.9°C 43.9°F6.6°C 35% 5.0 mph S8.0 kmh S -- 30.04 in1017.3 mb 0.00 in0.0 mm 0.00 in0.0 mm 0.00 in0.0 mm
04:05 PM 73.3°F22.9°C 43.2°F6.2°C 34% 7.0 mph SE11.3 kmh SE -- 30.04 in1017.3 mb 0.00 in0.0 mm 0.00 in0.0 mm 0.00 in0.0 mm
04:00 PM 73.4°F23.0°C 44.8°F7.1°C 36% 3.0 mph SE4.8 kmh SE -- 30.05 in1017.6 mb 0.00 in0.0 mm 0.00 in0.0 mm 0.00 in0.0 mm
03:55 PM 73.2°F22.9°C 43.2°F6.2°C 34% 4.0 mph SE6.4 kmh SE -- 30.05 in1017.6 mb 0.00 in0.0 mm 0.00 in0.0 mm 0.00 in0.0 mm
03:50 PM 72.9°F22.7°C 42.8°F6.0°C 34% 4.0 mph SSE6.4 kmh SSE -- 30.05 in1017.6 mb 0.00 in0.0 mm 0.00 in0.0 mm 0.00 in0.0 mm
03:45 PM 72.7°F22.6°C 43.5°F6.4°C 35% 8.0 mph ESE12.9 kmh ESE -- 30.05 in1017.6 mb 0.00 in0.0 mm 0.00 in0.0 mm 0.00 in0.0 mm
03:40 PM 72.6°F22.6°C 44.2°F6.8°C 36% 9.0 mph ESE14.5 kmh ESE -- 30.05 in1017.6 mb 0.00 in0.0 mm 0.00 in0.0 mm 0.00 in0.0 mm
03:35 PM 72.5°F22.5°C 44.1°F6.7°C 36% 5.0 mph SSE8.0 kmh SSE -- 30.05 in1017.6 mb 0.00 in0.0 mm 0.00 in0.0 mm 0.00 in0.0 mm
03:30 PM 72.5°F22.5°C 44.1°F6.7°C 36% 6.0 mph SE9.7 kmh SE -- 30.05 in1017.6 mb 0.00 in0.0 mm 0.00 in0.0 mm 0.00 in0.0 mm
03:25 PM 72.6°F22.6°C 44.2°F6.8°C 36% 6.0 mph SE9.7 kmh SE -- 30.06 in1017.9 mb 0.00 in0.0 mm 0.00 in0.0 mm 0.00 in0.0 mm
03:20 PM 72.7°F22.6°C 41.9°F5.5°C 33% 4.0 mph SE6.4 kmh SE -- 30.06 in1017.9 mb 0.00 in0.0 mm 0.00 in0.0 mm 0.00 in0.0 mm
03:15 PM 73.0°F22.8°C 43.0°F6.1°C 34% 7.0 mph SE11.3 kmh SE -- 30.07 in1018.3 mb 0.00 in0.0 mm 0.00 in0.0 mm 0.00 in0.0 mm
03:10 PM 73.3°F22.9°C 42.4°F5.8°C 33% 2.0 mph SSE3.2 kmh SSE -- 30.07 in1018.3 mb 0.00 in0.0 mm 0.00 in0.0 mm 0.00 in0.0 mm
03:05 PM 73.3°F22.9°C 42.4°F5.8°C 33% 4.0 mph SSW6.4 kmh SSW -- 30.07 in1018.3 mb 0.00 in0.0 mm 0.00 in0.0 mm 0.00 in0.0 mm
03:00 PM 73.2°F22.9°C 43.2°F6.2°C 34% 3.0 mph ESE4.8 kmh ESE -- 30.07 in1018.3 mb 0.00 in0.0 mm 0.00 in0.0 mm 0.00 in0.0 mm
02:55 PM 73.1°F22.8°C 43.0°F6.1°C 34% 9.0 mph SSE14.5 kmh SSE -- 30.07 in1018.3 mb 0.00 in0.0 mm 0.00 in0.0 mm 0.00 in0.0 mm
02:50 PM 73.0°F22.8°C 43.7°F6.5°C 35% 6.0 mph SSE9.7 kmh SSE -- 30.07 in1018.3 mb 0.00 in0.0 mm 0.00 in0.0 mm 0.00 in0.0 mm
02:45 PM 72.7°F22.6°C 41.9°F5.5°C 33% 6.0 mph SE9.7 kmh SE -- 30.07 in1018.3 mb 0.00 in0.0 mm 0.00 in0.0 mm 0.00 in0.0 mm
02:40 PM 72.8°F22.7°C 43.5°F6.4°C 35% 8.0 mph ESE12.9 kmh ESE -- 30.08 in1018.6 mb 0.00 in0.0 mm 0.00 in0.0 mm 0.00 in0.0 mm
02:35 PM 73.0°F22.8°C 43.0°F6.1°C 34% 9.0 mph ESE14.5 kmh ESE -- 30.08 in1018.6 mb 0.00 in0.0 mm 0.00 in0.0 mm 0.00 in0.0 mm
02:30 PM 72.6°F22.6°C 43.5°F6.4°C 35% 8.0 mph SSE12.9 kmh SSE -- 30.08 in1018.6 mb 0.00 in0.0 mm 0.00 in0.0 mm 0.00 in0.0 mm
02:25 PM 72.5°F22.5°C 43.3°F6.3°C 35% 5.0 mph SE8.0 kmh SE -- 30.09 in1019.0 mb 0.00 in0.0 mm 0.00 in0.0 mm 0.00 in0.0 mm
02:20 PM 72.3°F22.4°C 41.5°F5.3°C 33% 5.0 mph SSE8.0 kmh SSE -- 30.09 in1019.0 mb 0.00 in0.0 mm 0.00 in0.0 mm 0.00 in0.0 mm
02:15 PM 72.2°F22.3°C 43.0°F6.1°C 35% 5.0 mph SE8.0 kmh SE -- 30.10 in1019.3 mb 0.00 in0.0 mm 0.00 in0.0 mm 0.00 in0.0 mm
02:10 PM 71.9°F22.2°C 41.4°F5.2°C 33% 4.0 mph SE6.4 kmh SE -- 30.10 in1019.3 mb 0.00 in0.0 mm 0.00 in0.0 mm 0.00 in0.0 mm
02:05 PM 71.5°F21.9°C 43.7°F6.5°C 37% 3.0 mph SE4.8 kmh SE -- 30.10 in1019.3 mb 0.00 in0.0 mm 0.00 in0.0 mm 0.00 in0.0 mm
02:00 PM 71.2°F21.8°C 42.1°F5.6°C 35% 5.0 mph SE8.0 kmh SE -- 30.10 in1019.3 mb 0.00 in0.0 mm 0.00 in0.0 mm 0.00 in0.0 mm
01:55 PM 71.3°F21.8°C 42.1°F5.6°C 35% 9.0 mph ESE14.5 kmh ESE -- 30.11 in1019.6 mb 0.00 in0.0 mm 0.00 in0.0 mm 0.00 in0.0 mm
01:50 PM 71.4°F21.9°C 43.0°F6.1°C 36% 2.0 mph SSE3.2 kmh SSE -- 30.11 in1019.6 mb 0.00 in0.0 mm 0.00 in0.0 mm 0.00 in0.0 mm
01:45 PM 71.1°F21.7°C 41.2°F5.1°C 34% 5.0 mph SSE8.0 kmh SSE -- 30.12 in1020.0 mb 0.00 in0.0 mm 0.00 in0.0 mm 0.00 in0.0 mm
01:40 PM 71.1°F21.7°C 41.2°F5.1°C 34% 6.0 mph SE9.7 kmh SE -- 30.12 in1020.0 mb 0.00 in0.0 mm 0.00 in0.0 mm 0.00 in0.0 mm
01:35 PM 71.0°F21.7°C 42.1°F5.6°C 35% 4.0 mph SE6.4 kmh SE -- 30.12 in1020.0 mb 0.00 in0.0 mm 0.00 in0.0 mm 0.00 in0.0 mm
01:30 PM 70.8°F21.6°C 43.3°F6.3°C 37% 3.0 mph E4.8 kmh E -- 30.12 in1020.0 mb 0.00 in0.0 mm 0.00 in0.0 mm 0.00 in0.0 mm
01:25 PM 70.8°F21.6°C 41.9°F5.5°C 35% 2.0 mph SSE3.2 kmh SSE -- 30.13 in1020.3 mb 0.00 in0.0 mm 0.00 in0.0 mm 0.00 in0.0 mm
01:20 PM 70.6°F21.4°C 41.5°F5.3°C 35% 3.0 mph S4.8 kmh S -- 30.13 in1020.3 mb 0.00 in0.0 mm 0.00 in0.0 mm 0.00 in0.0 mm
01:15 PM 70.2°F21.2°C 41.9°F5.5°C 36% 2.0 mph SSE3.2 kmh SSE -- 30.14 in1020.7 mb 0.00 in0.0 mm 0.00 in0.0 mm 0.00 in0.0 mm
01:10 PM 70.3°F21.3°C 42.8°F6.0°C 37% 7.0 mph SSE11.3 kmh SSE -- 30.14 in1020.7 mb 0.00 in0.0 mm 0.00 in0.0 mm 0.00 in0.0 mm
01:05 PM 69.7°F20.9°C 42.8°F6.0°C 38% 5.0 mph SE8.0 kmh SE -- 30.14 in1020.7 mb 0.00 in0.0 mm 0.00 in0.0 mm 0.00 in0.0 mm
01:00 PM 69.4°F20.8°C 42.1°F5.6°C 37% 3.0 mph SSE4.8 kmh SSE -- 30.14 in1020.7 mb 0.00 in0.0 mm 0.00 in0.0 mm 0.00 in0.0 mm
12:55 PM 69.2°F20.7°C 43.2°F6.2°C 39% 4.0 mph SE6.4 kmh SE -- 30.14 in1020.7 mb 0.00 in0.0 mm 0.00 in0.0 mm 0.00 in0.0 mm
12:50 PM 69.3°F20.7°C 41.9°F5.5°C 37% 3.0 mph E4.8 kmh E -- 30.14 in1020.7 mb 0.00 in0.0 mm 0.00 in0.0 mm 0.00 in0.0 mm
12:45 PM 69.1°F20.6°C 43.7°F6.5°C 40% Calm Calm -- 30.15 in1021.0 mb 0.00 in0.0 mm 0.00 in0.0 mm 0.00 in0.0 mm
12:40 PM 69.0°F20.6°C 42.4°F5.8°C 38% 4.0 mph SE6.4 kmh SE -- 30.15 in1021.0 mb 0.00 in0.0 mm 0.00 in0.0 mm 0.00 in0.0 mm
12:35 PM 68.5°F20.3°C 41.9°F5.5°C 38% Calm Calm -- 30.15 in1021.0 mb 0.00 in0.0 mm 0.00 in0.0 mm 0.00 in0.0 mm
12:30 PM 68.2°F20.1°C 42.3°F5.7°C 39% 5.0 mph SE8.0 kmh SE -- 30.16 in1021.3 mb 0.00 in0.0 mm 0.00 in0.0 mm 0.00 in0.0 mm
12:25 PM 67.8°F19.9°C 41.9°F5.5°C 39% 3.0 mph S4.8 kmh S -- 30.16 in1021.3 mb 0.00 in0.0 mm 0.00 in0.0 mm 0.00 in0.0 mm
12:20 PM 67.5°F19.7°C 42.3°F5.7°C 40% 3.0 mph SE4.8 kmh SE -- 30.16 in1021.3 mb 0.00 in0.0 mm 0.00 in0.0 mm 0.00 in0.0 mm
12:15 PM 67.4°F19.7°C 42.3°F5.7°C 40% 4.0 mph ESE6.4 kmh ESE -- 30.16 in1021.3 mb 0.00 in0.0 mm 0.00 in0.0 mm 0.00 in0.0 mm
12:10 PM 67.5°F19.7°C 42.3°F5.7°C 40% 4.0 mph SSE6.4 kmh SSE -- 30.17 in1021.7 mb 0.00 in0.0 mm 0.00 in0.0 mm 0.00 in0.0 mm
12:05 PM 67.1°F19.5°C 43.2°F6.2°C 42% 3.0 mph ESE4.8 kmh ESE -- 30.17 in1021.7 mb 0.00 in0.0 mm 0.00 in0.0 mm 0.00 in0.0 mm
12:00 PM 66.9°F19.4°C 43.7°F6.5°C 43% 2.0 mph ESE3.2 kmh ESE -- 30.16 in1021.3 mb 0.00 in0.0 mm 0.00 in0.0 mm 0.00 in0.0 mm
11:55 AM 66.7°F19.3°C 45.3°F7.4°C 46% 9.0 mph SE14.5 kmh SE -- 30.16 in1021.3 mb 0.00 in0.0 mm 0.00 in0.0 mm 0.00 in0.0 mm
11:50 AM 66.3°F19.1°C 43.2°F6.2°C 43% 5.0 mph SE8.0 kmh SE -- 30.17 in1021.7 mb 0.00 in0.0 mm 0.00 in0.0 mm 0.00 in0.0 mm
11:45 AM 66.2°F19.0°C 43.0°F6.1°C 43% 7.0 mph E11.3 kmh E -- 30.17 in1021.7 mb 0.00 in0.0 mm 0.00 in0.0 mm 0.00 in0.0 mm
11:40 AM 65.7°F18.7°C 41.9°F5.5°C 42% 5.0 mph SE8.0 kmh SE -- 30.17 in1021.7 mb 0.00 in0.0 mm 0.00 in0.0 mm 0.00 in0.0 mm
11:35 AM 65.8°F18.8°C 42.1°F5.6°C 42% 7.0 mph SE11.3 kmh SE -- 30.17 in1021.7 mb 0.00 in0.0 mm 0.00 in0.0 mm 0.00 in0.0 mm
11:30 AM 65.5°F18.6°C 43.0°F6.1°C 44% 3.0 mph ESE4.8 kmh ESE -- 30.17 in1021.7 mb 0.00 in0.0 mm 0.00 in0.0 mm 0.00 in0.0 mm
11:25 AM 65.1°F18.4°C 43.2°F6.2°C 45% 4.0 mph ESE6.4 kmh ESE -- 30.17 in1021.7 mb 0.00 in0.0 mm 0.00 in0.0 mm 0.00 in0.0 mm
11:20 AM 64.6°F18.1°C 42.8°F6.0°C 45% 8.0 mph E12.9 kmh E -- 30.17 in1021.7 mb 0.00 in0.0 mm 0.00 in0.0 mm 0.00 in0.0 mm
11:15 AM 64.6°F18.1°C 42.8°F6.0°C 45% 7.0 mph SE11.3 kmh SE -- 30.17 in1021.7 mb 0.00 in0.0 mm 0.00 in0.0 mm 0.00 in0.0 mm
11:10 AM 64.6°F18.1°C 42.8°F6.0°C 45% 5.0 mph SE8.0 kmh SE -- 30.17 in1021.7 mb 0.00 in0.0 mm 0.00 in0.0 mm 0.00 in0.0 mm
11:05 AM 64.4°F18.0°C 42.6°F5.9°C 45% 2.0 mph SSE3.2 kmh SSE -- 30.18 in1022.0 mb 0.00 in0.0 mm 0.00 in0.0 mm 0.00 in0.0 mm
11:00 AM 63.9°F17.7°C 41.5°F5.3°C 44% 4.0 mph SE6.4 kmh SE -- 30.18 in1022.0 mb 0.00 in0.0 mm 0.00 in0.0 mm 0.00 in0.0 mm
10:55 AM 63.6°F17.6°C 42.4°F5.8°C 46% 7.0 mph SE11.3 kmh SE -- 30.18 in1022.0 mb 0.00 in0.0 mm 0.00 in0.0 mm 0.00 in0.0 mm
10:50 AM 63.2°F17.3°C 42.1°F5.6°C 46% 8.0 mph SSE12.9 kmh SSE -- 30.18 in1022.0 mb 0.00 in0.0 mm 0.00 in0.0 mm 0.00 in0.0 mm
10:45 AM 62.7°F17.1°C 44.4°F6.9°C 51% 5.0 mph SE8.0 kmh SE -- 30.18 in1022.0 mb 0.00 in0.0 mm 0.00 in0.0 mm 0.00 in0.0 mm
10:40 AM 62.3°F16.8°C 43.9°F6.6°C 51% 1.0 mph E1.6 kmh E -- 30.18 in1022.0 mb 0.00 in0.0 mm 0.00 in0.0 mm 0.00 in0.0 mm
10:35 AM 61.8°F16.6°C 45.0°F7.2°C 54% 3.0 mph E4.8 kmh E -- 30.18 in1022.0 mb 0.00 in0.0 mm 0.00 in0.0 mm 0.00 in0.0 mm
10:30 AM 61.1°F16.2°C 43.3°F6.3°C 52% 2.0 mph ESE3.2 kmh ESE -- 30.18 in1022.0 mb 0.00 in0.0 mm 0.00 in0.0 mm 0.00 in0.0 mm
10:25 AM 60.8°F16.0°C 43.5°F6.4°C 53% 7.0 mph E11.3 kmh E -- 30.18 in1022.0 mb 0.00 in0.0 mm 0.00 in0.0 mm 0.00 in0.0 mm
10:20 AM 60.4°F15.8°C 43.7°F6.5°C 54% 2.0 mph ESE3.2 kmh ESE -- 30.18 in1022.0 mb 0.00 in0.0 mm 0.00 in0.0 mm 0.00 in0.0 mm
10:15 AM 60.1°F15.6°C 44.4°F6.9°C 56% 8.0 mph ESE12.9 kmh ESE -- 30.19 in1022.4 mb 0.00 in0.0 mm 0.00 in0.0 mm 0.00 in0.0 mm
10:10 AM 59.6°F15.3°C 42.8°F6.0°C 54% 5.0 mph SE8.0 kmh SE -- 30.19 in1022.4 mb 0.00 in0.0 mm 0.00 in0.0 mm 0.00 in0.0 mm
10:05 AM 59.4°F15.2°C 42.8°F6.0°C 54% 7.0 mph ESE11.3 kmh ESE -- 30.19 in1022.4 mb 0.00 in0.0 mm 0.00 in0.0 mm 0.00 in0.0 mm
10:00 AM 59.4°F15.2°C 42.8°F6.0°C 54% 6.0 mph E9.7 kmh E -- 30.19 in1022.4 mb 0.00 in0.0 mm 0.00 in0.0 mm 0.00 in0.0 mm
09:55 AM 59.0°F15.0°C 41.9°F5.5°C 53% 3.0 mph ESE4.8 kmh ESE -- 30.19 in1022.4 mb 0.00 in0.0 mm 0.00 in0.0 mm 0.00 in0.0 mm
09:50 AM 58.9°F14.9°C 41.7°F5.4°C 53% 3.0 mph ESE4.8 kmh ESE -- 30.20 in1022.7 mb 0.00 in0.0 mm 0.00 in0.0 mm 0.00 in0.0 mm
09:45 AM 58.7°F14.8°C 41.5°F5.3°C 53% 3.0 mph SE4.8 kmh SE -- 30.20 in1022.7 mb 0.00 in0.0 mm 0.00 in0.0 mm 0.00 in0.0 mm
09:40 AM 58.3°F14.6°C 41.7°F5.4°C 54% 2.0 mph ESE3.2 kmh ESE -- 30.21 in1023.0 mb 0.00 in0.0 mm 0.00 in0.0 mm 0.00 in0.0 mm
09:35 AM 57.9°F14.4°C 41.4°F5.2°C 54% 3.0 mph SE4.8 kmh SE -- 30.21 in1023.0 mb 0.00 in0.0 mm 0.00 in0.0 mm 0.00 in0.0 mm
09:30 AM 57.3°F14.1°C 42.3°F5.7°C 57% 4.0 mph E6.4 kmh E -- 30.20 in1022.7 mb 0.00 in0.0 mm 0.00 in0.0 mm 0.00 in0.0 mm
09:25 AM 57.0°F13.9°C 41.9°F5.5°C 57% Calm Calm -- 30.21 in1023.0 mb 0.00 in0.0 mm 0.00 in0.0 mm 0.00 in0.0 mm
09:20 AM 57.0°F13.9°C 41.9°F5.5°C 57% 2.0 mph ESE3.2 kmh ESE -- 30.20 in1022.7 mb 0.00 in0.0 mm 0.00 in0.0 mm 0.00 in0.0 mm
09:15 AM 57.2°F14.0°C 42.6°F5.9°C 58% 3.0 mph SE4.8 kmh SE -- 30.21 in1023.0 mb 0.00 in0.0 mm 0.00 in0.0 mm 0.00 in0.0 mm
09:10 AM 57.1°F13.9°C 42.8°F6.0°C 59% 1.0 mph ESE1.6 kmh ESE -- 30.20 in1022.7 mb 0.00 in0.0 mm 0.00 in0.0 mm 0.00 in0.0 mm
09:05 AM 56.6°F13.7°C 43.7°F6.5°C 62% Calm Calm -- 30.20 in1022.7 mb 0.00 in0.0 mm 0.00 in0.0 mm 0.00 in0.0 mm
09:00 AM 56.0°F13.3°C 43.2°F6.2°C 62% Calm Calm -- 30.20 in1022.7 mb 0.00 in0.0 mm 0.00 in0.0 mm 0.00 in0.0 mm
08:55 AM 55.5°F13.1°C 42.8°F6.0°C 62% Calm Calm -- 30.20 in1022.7 mb 0.00 in0.0 mm 0.00 in0.0 mm 0.00 in0.0 mm
08:50 AM 55.0°F12.8°C 43.2°F6.2°C 64% Calm Calm -- 30.19 in1022.4 mb 0.00 in0.0 mm 0.00 in0.0 mm 0.00 in0.0 mm
08:45 AM 54.3°F12.4°C 42.8°F6.0°C 65% Calm Calm -- 30.19 in1022.4 mb 0.00 in0.0 mm 0.00 in0.0 mm 0.00 in0.0 mm
08:40 AM 53.6°F12.0°C 42.4°F5.8°C 66% Calm Calm -- 30.19 in1022.4 mb 0.00 in0.0 mm 0.00 in0.0 mm 0.00 in0.0 mm
08:35 AM 53.0°F11.7°C 42.4°F5.8°C 67% Calm Calm -- 30.18 in1022.0 mb 0.00 in0.0 mm 0.00 in0.0 mm 0.00 in0.0 mm
08:30 AM 52.3°F11.3°C 43.5°F6.4°C 72% 2.0 mph E3.2 kmh E -- 30.18 in1022.0 mb 0.00 in0.0 mm 0.00 in0.0 mm 0.00 in0.0 mm
08:25 AM 51.6°F10.9°C 43.0°F6.1°C 72% Calm Calm -- 30.18 in1022.0 mb 0.00 in0.0 mm 0.00 in0.0 mm 0.00 in0.0 mm
08:20 AM 51.4°F10.8°C 43.2°F6.2°C 73% Calm Calm -- 30.18 in1022.0 mb 0.00 in0.0 mm 0.00 in0.0 mm 0.00 in0.0 mm
08:15 AM 51.5°F10.8°C 43.2°F6.2°C 73% Calm Calm -- 30.18 in1022.0 mb 0.00 in0.0 mm 0.00 in0.0 mm 0.00 in0.0 mm
08:10 AM 51.3°F10.7°C 43.5°F6.4°C 75% Calm Calm -- 30.17 in1021.7 mb 0.00 in0.0 mm 0.00 in0.0 mm 0.00 in0.0 mm
08:05 AM 51.0°F10.6°C 43.7°F6.5°C 76% Calm Calm -- 30.17 in1021.7 mb 0.00 in0.0 mm 0.00 in0.0 mm 0.00 in0.0 mm
08:00 AM 50.9°F10.5°C 43.9°F6.6°C 77% Calm Calm -- 30.16 in1021.3 mb 0.00 in0.0 mm 0.00 in0.0 mm 0.00 in0.0 mm
07:55 AM 50.6°F10.3°C 43.9°F6.6°C 78% Calm Calm -- 30.16 in1021.3 mb 0.00 in0.0 mm 0.00 in0.0 mm 0.00 in0.0 mm
07:50 AM 50.3°F10.2°C 43.7°F6.5°C 78% Calm Calm -- 30.16 in1021.3 mb 0.00 in0.0 mm 0.00 in0.0 mm 0.00 in0.0 mm
07:45 AM 50.0°F10.0°C 43.3°F6.3°C 78% Calm Calm -- 30.16 in1021.3 mb 0.00 in0.0 mm 0.00 in0.0 mm 0.00 in0.0 mm
07:40 AM 49.9°F9.9°C 43.5°F6.4°C 79% Calm Calm -- 30.16 in1021.3 mb 0.00 in0.0 mm 0.00 in0.0 mm 0.00 in0.0 mm
07:35 AM 49.7°F9.8°C 43.3°F6.3°C 79% Calm Calm -- 30.16 in1021.3 mb 0.00 in0.0 mm 0.00 in0.0 mm 0.00 in0.0 mm
07:30 AM 49.4°F9.7°C 43.5°F6.4°C 80% Calm Calm -- 30.16 in1021.3 mb 0.00 in0.0 mm 0.00 in0.0 mm 0.00 in0.0 mm
07:25 AM 49.1°F9.5°C 43.5°F6.4°C 81% Calm Calm -- 30.15 in1021.0 mb 0.00 in0.0 mm 0.00 in0.0 mm 0.00 in0.0 mm
07:20 AM 48.6°F9.2°C 43.3°F6.3°C 82% Calm Calm -- 30.15 in1021.0 mb 0.00 in0.0 mm 0.00 in0.0 mm 0.00 in0.0 mm
07:15 AM 48.3°F9.1°C 43.7°F6.5°C 84% Calm Calm -- 30.15 in1021.0 mb 0.00 in0.0 mm 0.00 in0.0 mm 0.00 in0.0 mm
07:10 AM 48.2°F9.0°C 43.9°F6.6°C 85% Calm Calm -- 30.15 in1021.0 mb 0.00 in0.0 mm 0.00 in0.0 mm 0.00 in0.0 mm
07:05 AM 48.0°F8.9°C 43.7°F6.5°C 85% Calm Calm -- 30.15 in1021.0 mb 0.00 in0.0 mm 0.00 in0.0 mm 0.00 in0.0 mm
07:00 AM 47.9°F8.8°C 43.9°F6.6°C 86% Calm Calm -- 30.15 in1021.0 mb 0.00 in0.0 mm 0.00 in0.0 mm 0.00 in0.0 mm
06:55 AM 47.8°F8.8°C 43.9°F6.6°C 86% Calm Calm -- 30.15 in1021.0 mb 0.00 in0.0 mm 0.00 in0.0 mm 0.00 in0.0 mm
06:50 AM 47.8°F8.8°C 43.5°F6.4°C 85% Calm Calm -- 30.15 in1021.0 mb 0.00 in0.0 mm 0.00 in0.0 mm 0.00 in0.0 mm
06:45 AM 47.8°F8.8°C 43.5°F6.4°C 85% Calm Calm -- 30.15 in1021.0 mb 0.00 in0.0 mm 0.00 in0.0 mm 0.00 in0.0 mm
06:40 AM 47.8°F8.8°C 43.2°F6.2°C 84% Calm Calm -- 30.15 in1021.0 mb 0.00 in0.0 mm 0.00 in0.0 mm 0.00 in0.0 mm
06:35 AM 48.0°F8.9°C 42.8°F6.0°C 82% Calm Calm -- 30.15 in1021.0 mb 0.00 in0.0 mm 0.00 in0.0 mm 0.00 in0.0 mm
06:30 AM 48.3°F9.1°C 43.2°F6.2°C 82% Calm Calm -- 30.15 in1021.0 mb 0.00 in0.0 mm 0.00 in0.0 mm 0.00 in0.0 mm
06:25 AM 49.0°F9.4°C 43.7°F6.5°C 82% Calm Calm -- 30.15 in1021.0 mb 0.00 in0.0 mm 0.00 in0.0 mm 0.00 in0.0 mm
06:20 AM 49.4°F9.7°C 43.9°F6.6°C 81% Calm Calm -- 30.15 in1021.0 mb 0.00 in0.0 mm 0.00 in0.0 mm 0.00 in0.0 mm
06:15 AM 49.9°F9.9°C 44.2°F6.8°C 81% Calm Calm -- 30.14 in1020.7 mb 0.00 in0.0 mm 0.00 in0.0 mm 0.00 in0.0 mm
06:10 AM 50.4°F10.2°C 45.1°F7.3°C 82% Calm Calm -- 30.14 in1020.7 mb 0.00 in0.0 mm 0.00 in0.0 mm 0.00 in0.0 mm
06:05 AM 50.6°F10.3°C 45.5°F7.5°C 83% Calm Calm -- 30.14 in1020.7 mb 0.00 in0.0 mm 0.00 in0.0 mm 0.00 in0.0 mm
06:00 AM 50.7°F10.4°C 45.5°F7.5°C 82% Calm Calm -- 30.14 in1020.7 mb 0.00 in0.0 mm 0.00 in0.0 mm 0.00 in0.0 mm
05:55 AM 50.8°F10.4°C 45.5°F7.5°C 82% 2.0 mph NE3.2 kmh NE -- 30.14 in1020.7 mb 0.00 in0.0 mm 0.00 in0.0 mm 0.00 in0.0 mm
05:50 AM 50.8°F10.4°C 44.8°F7.1°C 80% 2.0 mph NE3.2 kmh NE -- 30.14 in1020.7 mb 0.00 in0.0 mm 0.00 in0.0 mm 0.00 in0.0 mm
05:45 AM 50.9°F10.5°C 44.6°F7.0°C 79% 3.0 mph NE4.8 kmh NE -- 30.14 in1020.7 mb 0.00 in0.0 mm 0.00 in0.0 mm 0.00 in0.0 mm
05:40 AM 51.2°F10.7°C 45.0°F7.2°C 79% 2.0 mph NE3.2 kmh NE -- 30.14 in1020.7 mb 0.00 in0.0 mm 0.00 in0.0 mm 0.00 in0.0 mm
05:35 AM 51.4°F10.8°C 45.1°F7.3°C 79% 3.0 mph NE4.8 kmh NE -- 30.14 in1020.7 mb 0.00 in0.0 mm 0.00 in0.0 mm 0.00 in0.0 mm
05:30 AM 51.4°F10.8°C 44.8°F7.1°C 78% 2.0 mph NE3.2 kmh NE -- 30.14 in1020.7 mb 0.00 in0.0 mm 0.00 in0.0 mm 0.00 in0.0 mm
05:25 AM 51.4°F10.8°C 44.8°F7.1°C 78% Calm Calm -- 30.14 in1020.7 mb 0.00 in0.0 mm 0.00 in0.0 mm 0.00 in0.0 mm
05:20 AM 51.3°F10.7°C 44.2°F6.8°C 77% Calm Calm -- 30.14 in1020.7 mb 0.00 in0.0 mm 0.00 in0.0 mm 0.00 in0.0 mm
05:15 AM 51.3°F10.7°C 43.9°F6.6°C 76% Calm Calm -- 30.13 in1020.3 mb 0.00 in0.0 mm 0.00 in0.0 mm 0.00 in0.0 mm
05:10 AM 51.4°F10.8°C 44.1°F6.7°C 76% Calm Calm -- 30.14 in1020.7 mb 0.00 in0.0 mm 0.00 in0.0 mm 0.00 in0.0 mm
05:05 AM 51.3°F10.7°C 43.9°F6.6°C 76% Calm Calm -- 30.13 in1020.3 mb 0.00 in0.0 mm 0.00 in0.0 mm 0.00 in0.0 mm
05:00 AM 51.0°F10.6°C 44.1°F6.7°C 77% Calm Calm -- 30.13 in1020.3 mb 0.00 in0.0 mm 0.00 in0.0 mm 0.00 in0.0 mm
04:55 AM 51.0°F10.6°C 43.7°F6.5°C 76% Calm Calm -- 30.13 in1020.3 mb 0.00 in0.0 mm 0.00 in0.0 mm 0.00 in0.0 mm
04:50 AM 51.0°F10.6°C 44.1°F6.7°C 77% Calm Calm -- 30.13 in1020.3 mb 0.00 in0.0 mm 0.00 in0.0 mm 0.00 in0.0 mm
04:45 AM 51.1°F10.6°C 44.1°F6.7°C 77% Calm Calm -- 30.13 in1020.3 mb 0.00 in0.0 mm 0.00 in0.0 mm 0.00 in0.0 mm
04:40 AM 51.1°F10.6°C 43.7°F6.5°C 76% Calm Calm -- 30.12 in1020.0 mb 0.00 in0.0 mm 0.00 in0.0 mm 0.00 in0.0 mm
04:35 AM 51.3°F10.7°C 43.5°F6.4°C 75% Calm Calm -- 30.12 in1020.0 mb 0.00 in0.0 mm 0.00 in0.0 mm 0.00 in0.0 mm
04:30 AM 51.8°F11.0°C 43.3°F6.3°C 73% Calm Calm -- 30.12 in1020.0 mb 0.00 in0.0 mm 0.00 in0.0 mm 0.00 in0.0 mm
04:25 AM 52.4°F11.3°C 43.5°F6.4°C 72% Calm Calm -- 30.12 in1020.0 mb 0.00 in0.0 mm 0.00 in0.0 mm 0.00 in0.0 mm
04:20 AM 52.8°F11.6°C 44.1°F6.7°C 72% Calm Calm -- 30.12 in1020.0 mb 0.00 in0.0 mm 0.00 in0.0 mm 0.00 in0.0 mm
04:15 AM 53.0°F11.7°C 44.6°F7.0°C 73% Calm Calm -- 30.12 in1020.0 mb 0.00 in0.0 mm 0.00 in0.0 mm 0.00 in0.0 mm
04:10 AM 52.9°F11.6°C 44.8°F7.1°C 74% Calm Calm -- 30.12 in1020.0 mb 0.00 in0.0 mm 0.00 in0.0 mm 0.00 in0.0 mm
04:05 AM 52.6°F11.4°C 44.4°F6.9°C 74% Calm Calm -- 30.12 in1020.0 mb 0.00 in0.0 mm 0.00 in0.0 mm 0.00 in0.0 mm
04:00 AM 52.2°F11.2°C 44.4°F6.9°C 75% Calm Calm -- 30.12 in1020.0 mb 0.00 in0.0 mm 0.00 in0.0 mm 0.00 in0.0 mm
03:55 AM 51.9°F11.1°C 44.2°F6.8°C 75% Calm Calm -- 30.12 in1020.0 mb 0.00 in0.0 mm 0.00 in0.0 mm 0.00 in0.0 mm
03:50 AM 51.8°F11.0°C 43.7°F6.5°C 74% Calm Calm -- 30.12 in1020.0 mb 0.00 in0.0 mm 0.00 in0.0 mm 0.00 in0.0 mm
03:45 AM 51.9°F11.1°C 43.5°F6.4°C 73% Calm Calm -- 30.12 in1020.0 mb 0.00 in0.0 mm 0.00 in0.0 mm 0.00 in0.0 mm
03:40 AM 52.2°F11.2°C 43.3°F6.3°C 72% Calm Calm -- 30.13 in1020.3 mb 0.00 in0.0 mm 0.00 in0.0 mm 0.00 in0.0 mm
03:35 AM 52.3°F11.3°C 43.5°F6.4°C 72% Calm Calm -- 30.13 in1020.3 mb 0.00 in0.0 mm 0.00 in0.0 mm 0.00 in0.0 mm
03:30 AM 52.3°F11.3°C 43.5°F6.4°C 72% Calm Calm -- 30.13 in1020.3 mb 0.00 in0.0 mm 0.00 in0.0 mm 0.00 in0.0 mm
03:25 AM 52.1°F11.2°C 43.3°F6.3°C 72% Calm Calm -- 30.13 in1020.3 mb 0.00 in0.0 mm 0.00 in0.0 mm 0.00 in0.0 mm
03:20 AM 51.6°F10.9°C 42.4°F5.8°C 71% Calm Calm -- 30.13 in1020.3 mb 0.00 in0.0 mm 0.00 in0.0 mm 0.00 in0.0 mm
03:15 AM 51.7°F10.9°C 42.1°F5.6°C 70% Calm Calm -- 30.13 in1020.3 mb 0.00 in0.0 mm 0.00 in0.0 mm 0.00 in0.0 mm
03:10 AM 51.5°F10.8°C 41.9°F5.5°C 70% Calm Calm -- 30.13 in1020.3 mb 0.00 in0.0 mm 0.00 in0.0 mm 0.00 in0.0 mm
03:05 AM 51.2°F10.7°C 42.3°F5.7°C 71% Calm Calm -- 30.12 in1020.0 mb 0.00 in0.0 mm 0.00 in0.0 mm 0.00 in0.0 mm
03:00 AM 51.2°F10.7°C 41.9°F5.5°C 70% Calm Calm -- 30.12 in1020.0 mb 0.00 in0.0 mm 0.00 in0.0 mm 0.00 in0.0 mm
02:55 AM 51.4°F10.8°C 41.9°F5.5°C 70% Calm Calm -- 30.13 in1020.3 mb 0.00 in0.0 mm 0.00 in0.0 mm 0.00 in0.0 mm
02:50 AM 51.5°F10.8°C 41.9°F5.5°C 70% Calm Calm -- 30.13 in1020.3 mb 0.00 in0.0 mm 0.00 in0.0 mm 0.00 in0.0 mm
02:45 AM 51.6°F10.9°C 42.1°F5.6°C 70% Calm Calm -- 30.13 in1020.3 mb 0.00 in0.0 mm 0.00 in0.0 mm 0.00 in0.0 mm
02:40 AM 51.4°F10.8°C 42.8°F6.0°C 72% Calm Calm -- 30.13 in1020.3 mb 0.00 in0.0 mm 0.00 in0.0 mm 0.00 in0.0 mm
02:35 AM 51.2°F10.7°C 43.3°F6.3°C 74% Calm Calm -- 30.13 in1020.3 mb 0.00 in0.0 mm 0.00 in0.0 mm 0.00 in0.0 mm
02:30 AM 51.3°F10.7°C 43.3°F6.3°C 74% Calm Calm -- 30.13 in1020.3 mb 0.00 in0.0 mm 0.00 in0.0 mm 0.00 in0.0 mm
02:25 AM 51.4°F10.8°C 43.2°F6.2°C 73% Calm Calm -- 30.13 in1020.3 mb 0.00 in0.0 mm 0.00 in0.0 mm 0.00 in0.0 mm
02:20 AM 51.7°F10.9°C 43.3°F6.3°C 73% Calm Calm -- 30.13 in1020.3 mb 0.00 in0.0 mm 0.00 in0.0 mm 0.00 in0.0 mm
02:15 AM 52.0°F11.1°C 43.5°F6.4°C 73% Calm Calm -- 30.13 in1020.3 mb 0.00 in0.0 mm 0.00 in0.0 mm 0.00 in0.0 mm
02:10 AM 52.6°F11.4°C 43.7°F6.5°C 72% Calm Calm -- 30.13 in1020.3 mb 0.00 in0.0 mm 0.00 in0.0 mm 0.00 in0.0 mm
02:05 AM 52.9°F11.6°C 43.7°F6.5°C 71% Calm Calm -- 30.13 in1020.3 mb 0.00 in0.0 mm 0.00 in0.0 mm 0.00 in0.0 mm
02:00 AM 53.2°F11.8°C 44.1°F6.7°C 71% Calm Calm -- 30.13 in1020.3 mb 0.00 in0.0 mm 0.00 in0.0 mm 0.00 in0.0 mm
01:55 AM 53.4°F11.9°C 44.2°F6.8°C 71% Calm Calm -- 30.13 in1020.3 mb 0.00 in0.0 mm 0.00 in0.0 mm 0.00 in0.0 mm
01:50 AM 53.8°F12.1°C 44.2°F6.8°C 70% Calm Calm -- 30.13 in1020.3 mb 0.00 in0.0 mm 0.00 in0.0 mm 0.00 in0.0 mm
01:45 AM 54.2°F12.3°C 44.6°F7.0°C 70% Calm Calm -- 30.13 in1020.3 mb 0.00 in0.0 mm 0.00 in0.0 mm 0.00 in0.0 mm
01:40 AM 54.6°F12.6°C 45.1°F7.3°C 70% Calm Calm -- 30.13 in1020.3 mb 0.00 in0.0 mm 0.00 in0.0 mm 0.00 in0.0 mm
01:35 AM 55.2°F12.9°C 45.7°F7.6°C 70% Calm Calm -- 30.13 in1020.3 mb 0.00 in0.0 mm 0.00 in0.0 mm 0.00 in0.0 mm
01:30 AM 55.8°F13.2°C 45.7°F7.6°C 69% Calm Calm -- 30.13 in1020.3 mb 0.00 in0.0 mm 0.00 in0.0 mm 0.00 in0.0 mm
01:25 AM 56.3°F13.5°C 45.5°F7.5°C 67% Calm Calm -- 30.13 in1020.3 mb 0.00 in0.0 mm 0.00 in0.0 mm 0.00 in0.0 mm
01:20 AM 56.5°F13.6°C 46.0°F7.8°C 68% Calm Calm -- 30.13 in1020.3 mb 0.00 in0.0 mm 0.00 in0.0 mm 0.00 in0.0 mm
01:15 AM 56.6°F13.7°C 46.2°F7.9°C 68% Calm Calm -- 30.13 in1020.3 mb 0.00 in0.0 mm 0.00 in0.0 mm 0.00 in0.0 mm
01:10 AM 56.8°F13.8°C 47.1°F8.4°C 70% Calm Calm -- 30.13 in1020.3 mb 0.00 in0.0 mm 0.00 in0.0 mm 0.00 in0.0 mm
01:05 AM 57.0°F13.9°C 47.7°F8.7°C 71% Calm Calm -- 30.13 in1020.3 mb 0.00 in0.0 mm 0.00 in0.0 mm 0.00 in0.0 mm
01:00 AM 57.0°F13.9°C 47.3°F8.5°C 70% Calm Calm -- 30.13 in1020.3 mb 0.00 in0.0 mm 0.00 in0.0 mm 0.00 in0.0 mm
12:55 AM 57.1°F13.9°C 47.3°F8.5°C 70% Calm Calm -- 30.13 in1020.3 mb 0.00 in0.0 mm 0.00 in0.0 mm 0.00 in0.0 mm
12:50 AM 57.3°F14.1°C 46.9°F8.3°C 68% Calm Calm -- 30.13 in1020.3 mb 0.00 in0.0 mm 0.00 in0.0 mm 0.00 in0.0 mm
12:45 AM 57.3°F14.1°C 46.6°F8.1°C 67% 1.0 mph NE1.6 kmh NE -- 30.13 in1020.3 mb 0.00 in0.0 mm 0.00 in0.0 mm 0.00 in0.0 mm
12:40 AM 57.5°F14.2°C 45.9°F7.7°C 65% Calm Calm -- 30.13 in1020.3 mb 0.00 in0.0 mm 0.00 in0.0 mm 0.00 in0.0 mm
12:35 AM 57.7°F14.3°C 45.7°F7.6°C 64% 1.0 mph NE1.6 kmh NE -- 30.14 in1020.7 mb 0.00 in0.0 mm 0.00 in0.0 mm 0.00 in0.0 mm
12:30 AM 57.8°F14.3°C 44.8°F7.1°C 62% Calm Calm -- 30.14 in1020.7 mb 0.00 in0.0 mm 0.00 in0.0 mm 0.00 in0.0 mm
12:25 AM 58.0°F14.4°C 44.1°F6.7°C 60% 1.0 mph NE1.6 kmh NE -- 30.14 in1020.7 mb 0.00 in0.0 mm 0.00 in0.0 mm 0.00 in0.0 mm
12:20 AM 58.2°F14.6°C 42.6°F5.9°C 56% Calm Calm -- 30.14 in1020.7 mb 0.00 in0.0 mm 0.00 in0.0 mm 0.00 in0.0 mm
12:15 AM 58.4°F14.7°C 42.8°F6.0°C 56% 1.0 mph NE1.6 kmh NE -- 30.14 in1020.7 mb 0.00 in0.0 mm 0.00 in0.0 mm 0.00 in0.0 mm
12:10 AM 58.5°F14.7°C 42.4°F5.8°C 55% 2.0 mph NE3.2 kmh NE -- 30.14 in1020.7 mb 0.00 in0.0 mm 0.00 in0.0 mm 0.00 in0.0 mm
12:05 AM 58.5°F14.7°C 42.4°F5.8°C 55% Calm Calm -- 30.14 in1020.7 mb 0.00 in0.0 mm 0.00 in0.0 mm 0.00 in0.0 mm
12:00 AM 58.6°F14.8°C 42.1°F5.6°C 54% Calm Calm -- 30.14 in1020.7 mb 0.00 in0.0 mm 0.00 in0.0 mm 0.00 in0.0 mm